sensor_id;sensor_type;location;lat;lon;timestamp;P1;durP1;ratioP1;P2;durP2;ratioP2
9749;SDS011;4914;43.218;27.908;2022-07-22T00:00:48;12.32;;;8.98;;
9749;SDS011;4914;43.218;27.908;2022-07-22T00:03:15;23.95;;;9.07;;
9749;SDS011;4914;43.218;27.908;2022-07-22T00:05:42;11.98;;;8.57;;
9749;SDS011;4914;43.218;27.908;2022-07-22T00:08:10;13.50;;;8.30;;
9749;SDS011;4914;43.218;27.908;2022-07-22T00:10:37;14.10;;;8.02;;
9749;SDS011;4914;43.218;27.908;2022-07-22T00:13:04;11.88;;;8.20;;
9749;SDS011;4914;43.218;27.908;2022-07-22T00:15:31;12.65;;;8.27;;
9749;SDS011;4914;43.218;27.908;2022-07-22T00:17:58;12.55;;;8.20;;
9749;SDS011;4914;43.218;27.908;2022-07-22T00:20:25;10.85;;;8.27;;
9749;SDS011;4914;43.218;27.908;2022-07-22T00:22:51;9.70;;;8.20;;
9749;SDS011;4914;43.218;27.908;2022-07-22T00:25:20;18.85;;;8.60;;
9749;SDS011;4914;43.218;27.908;2022-07-22T00:27:47;11.65;;;8.30;;
9749;SDS011;4914;43.218;27.908;2022-07-22T00:30:14;9.38;;;7.65;;
9749;SDS011;4914;43.218;27.908;2022-07-22T00:32:41;12.63;;;8.50;;
9749;SDS011;4914;43.218;27.908;2022-07-22T00:35:09;15.73;;;7.88;;
9749;SDS011;4914;43.218;27.908;2022-07-22T00:37:36;11.45;;;7.47;;
9749;SDS011;4914;43.218;27.908;2022-07-22T00:40:03;11.38;;;7.38;;
9749;SDS011;4914;43.218;27.908;2022-07-22T00:42:32;9.98;;;7.35;;
9749;SDS011;4914;43.218;27.908;2022-07-22T00:44:59;12.10;;;7.20;;
9749;SDS011;4914;43.218;27.908;2022-07-22T00:47:26;13.57;;;7.05;;
9749;SDS011;4914;43.218;27.908;2022-07-22T00:49:53;9.10;;;6.70;;
9749;SDS011;4914;43.218;27.908;2022-07-22T00:52:19;12.13;;;7.25;;
9749;SDS011;4914;43.218;27.908;2022-07-22T00:54:48;7.80;;;6.70;;
9749;SDS011;4914;43.218;27.908;2022-07-22T00:57:16;14.35;;;7.05;;
9749;SDS011;4914;43.218;27.908;2022-07-22T00:59:44;14.73;;;6.78;;
9749;SDS011;4914;43.218;27.908;2022-07-22T01:02:11;10.80;;;7.25;;
9749;SDS011;4914;43.218;27.908;2022-07-22T01:04:38;10.15;;;6.80;;
9749;SDS011;4914;43.218;27.908;2022-07-22T01:07:06;13.20;;;7.22;;
9749;SDS011;4914;43.218;27.908;2022-07-22T01:09:33;10.30;;;6.80;;
9749;SDS011;4914;43.218;27.908;2022-07-22T01:12:00;13.40;;;6.70;;
9749;SDS011;4914;43.218;27.908;2022-07-22T01:14:27;9.20;;;7.32;;
9749;SDS011;4914;43.218;27.908;2022-07-22T01:16:55;8.95;;;7.43;;
9749;SDS011;4914;43.218;27.908;2022-07-22T01:19:22;14.30;;;7.30;;
9749;SDS011;4914;43.218;27.908;2022-07-22T01:21:50;12.70;;;7.13;;
9749;SDS011;4914;43.218;27.908;2022-07-22T01:24:17;12.65;;;7.40;;
9749;SDS011;4914;43.218;27.908;2022-07-22T01:26:44;10.20;;;7.45;;
9749;SDS011;4914;43.218;27.908;2022-07-22T01:29:11;7.88;;;7.07;;
9749;SDS011;4914;43.218;27.908;2022-07-22T01:31:38;12.93;;;7.60;;
9749;SDS011;4914;43.218;27.908;2022-07-22T01:34:05;13.57;;;11.48;;
9749;SDS011;4914;43.218;27.908;2022-07-22T01:36:32;35.25;;;28.90;;
9749;SDS011;4914;43.218;27.908;2022-07-22T01:39:00;34.63;;;30.90;;
9749;SDS011;4914;43.218;27.908;2022-07-22T01:41:27;37.53;;;31.75;;
9749;SDS011;4914;43.218;27.908;2022-07-22T01:43:53;27.20;;;20.88;;
9749;SDS011;4914;43.218;27.908;2022-07-22T01:46:20;17.27;;;14.57;;
9749;SDS011;4914;43.218;27.908;2022-07-22T01:48:48;16.38;;;9.93;;
9749;SDS011;4914;43.218;27.908;2022-07-22T01:51:16;15.45;;;8.80;;
9749;SDS011;4914;43.218;27.908;2022-07-22T01:53:43;12.48;;;8.50;;
9749;SDS011;4914;43.218;27.908;2022-07-22T01:56:11;13.48;;;9.00;;
9749;SDS011;4914;43.218;27.908;2022-07-22T01:58:38;12.02;;;8.88;;
9749;SDS011;4914;43.218;27.908;2022-07-22T02:01:05;15.98;;;9.07;;
9749;SDS011;4914;43.218;27.908;2022-07-22T02:03:32;14.98;;;8.98;;
9749;SDS011;4914;43.218;27.908;2022-07-22T02:05:59;13.13;;;9.32;;
9749;SDS011;4914;43.218;27.908;2022-07-22T02:08:26;18.80;;;9.35;;
9749;SDS011;4914;43.218;27.908;2022-07-22T02:10:52;17.65;;;9.30;;
9749;SDS011;4914;43.218;27.908;2022-07-22T02:13:21;12.00;;;8.52;;
9749;SDS011;4914;43.218;27.908;2022-07-22T02:15:47;11.73;;;8.90;;
9749;SDS011;4914;43.218;27.908;2022-07-22T02:18:15;14.38;;;9.15;;
9749;SDS011;4914;43.218;27.908;2022-07-22T02:20:43;15.20;;;9.32;;
9749;SDS011;4914;43.218;27.908;2022-07-22T02:23:11;12.88;;;8.88;;
9749;SDS011;4914;43.218;27.908;2022-07-22T02:25:38;13.45;;;8.80;;
9749;SDS011;4914;43.218;27.908;2022-07-22T02:28:05;15.80;;;8.38;;
9749;SDS011;4914;43.218;27.908;2022-07-22T02:30:34;12.50;;;8.07;;
9749;SDS011;4914;43.218;27.908;2022-07-22T02:33:01;11.38;;;7.93;;
9749;SDS011;4914;43.218;27.908;2022-07-22T02:35:28;22.10;;;17.70;;
9749;SDS011;4914;43.218;27.908;2022-07-22T02:37:55;11.60;;;8.00;;
9749;SDS011;4914;43.218;27.908;2022-07-22T02:40:22;11.50;;;7.75;;
9749;SDS011;4914;43.218;27.908;2022-07-22T02:42:49;14.80;;;7.72;;
9749;SDS011;4914;43.218;27.908;2022-07-22T02:45:15;12.30;;;7.85;;
9749;SDS011;4914;43.218;27.908;2022-07-22T02:47:48;11.45;;;7.38;;
9749;SDS011;4914;43.218;27.908;2022-07-22T02:50:15;15.80;;;7.60;;
9749;SDS011;4914;43.218;27.908;2022-07-22T02:52:42;12.55;;;7.65;;
9749;SDS011;4914;43.218;27.908;2022-07-22T02:55:09;10.95;;;7.40;;
9749;SDS011;4914;43.218;27.908;2022-07-22T02:57:36;9.23;;;7.18;;
9749;SDS011;4914;43.218;27.908;2022-07-22T03:00:04;13.98;;;7.68;;
9749;SDS011;4914;43.218;27.908;2022-07-22T03:02:32;11.82;;;7.60;;
9749;SDS011;4914;43.218;27.908;2022-07-22T03:05:00;12.88;;;7.90;;
9749;SDS011;4914;43.218;27.908;2022-07-22T03:07:27;12.38;;;8.40;;
9749;SDS011;4914;43.218;27.908;2022-07-22T03:09:54;14.18;;;7.90;;
9749;SDS011;4914;43.218;27.908;2022-07-22T03:12:20;18.65;;;8.40;;
9749;SDS011;4914;43.218;27.908;2022-07-22T03:14:47;21.35;;;8.32;;
9749;SDS011;4914;43.218;27.908;2022-07-22T03:17:14;13.02;;;7.88;;
9749;SDS011;4914;43.218;27.908;2022-07-22T03:19:41;12.55;;;8.07;;
9749;SDS011;4914;43.218;27.908;2022-07-22T03:22:09;12.35;;;8.25;;
9749;SDS011;4914;43.218;27.908;2022-07-22T03:24:36;23.20;;;9.13;;
9749;SDS011;4914;43.218;27.908;2022-07-22T03:27:03;20.55;;;12.05;;
9749;SDS011;4914;43.218;27.908;2022-07-22T03:29:30;25.08;;;12.55;;
9749;SDS011;4914;43.218;27.908;2022-07-22T03:31:57;28.33;;;13.25;;
9749;SDS011;4914;43.218;27.908;2022-07-22T03:34:24;29.60;;;14.43;;
9749;SDS011;4914;43.218;27.908;2022-07-22T03:36:51;38.35;;;17.00;;
9749;SDS011;4914;43.218;27.908;2022-07-22T03:39:19;34.17;;;17.13;;
9749;SDS011;4914;43.218;27.908;2022-07-22T03:41:45;32.13;;;16.15;;
9749;SDS011;4914;43.218;27.908;2022-07-22T03:44:12;32.28;;;16.73;;
9749;SDS011;4914;43.218;27.908;2022-07-22T03:46:39;38.72;;;17.17;;
9749;SDS011;4914;43.218;27.908;2022-07-22T03:49:06;33.47;;;17.23;;
9749;SDS011;4914;43.218;27.908;2022-07-22T03:51:33;33.65;;;17.88;;
9749;SDS011;4914;43.218;27.908;2022-07-22T03:54:00;34.70;;;17.05;;
9749;SDS011;4914;43.218;27.908;2022-07-22T03:56:28;28.02;;;16.85;;
9749;SDS011;4914;43.218;27.908;2022-07-22T03:58:55;31.65;;;16.77;;
9749;SDS011;4914;43.218;27.908;2022-07-22T04:01:21;36.50;;;16.85;;
9749;SDS011;4914;43.218;27.908;2022-07-22T04:03:48;36.55;;;16.88;;
9749;SDS011;4914;43.218;27.908;2022-07-22T04:06:15;30.58;;;16.52;;
9749;SDS011;4914;43.218;27.908;2022-07-22T04:08:43;34.20;;;16.83;;
9749;SDS011;4914;43.218;27.908;2022-07-22T04:11:10;34.80;;;16.65;;
9749;SDS011;4914;43.218;27.908;2022-07-22T04:13:38;34.45;;;16.38;;
9749;SDS011;4914;43.218;27.908;2022-07-22T04:16:05;35.38;;;15.85;;
9749;SDS011;4914;43.218;27.908;2022-07-22T04:18:32;36.92;;;16.98;;
9749;SDS011;4914;43.218;27.908;2022-07-22T04:20:59;31.45;;;16.23;;
9749;SDS011;4914;43.218;27.908;2022-07-22T04:23:26;31.65;;;15.98;;
9749;SDS011;4914;43.218;27.908;2022-07-22T04:25:53;30.77;;;15.10;;
9749;SDS011;4914;43.218;27.908;2022-07-22T04:28:20;41.03;;;16.20;;
9749;SDS011;4914;43.218;27.908;2022-07-22T04:30:48;38.50;;;15.63;;
9749;SDS011;4914;43.218;27.908;2022-07-22T04:33:15;29.50;;;15.35;;
9749;SDS011;4914;43.218;27.908;2022-07-22T04:35:42;29.02;;;14.80;;
9749;SDS011;4914;43.218;27.908;2022-07-22T04:38:09;35.72;;;15.30;;
9749;SDS011;4914;43.218;27.908;2022-07-22T04:40:36;34.60;;;15.38;;
9749;SDS011;4914;43.218;27.908;2022-07-22T04:43:03;37.53;;;14.18;;
9749;SDS011;4914;43.218;27.908;2022-07-22T04:45:30;26.90;;;14.52;;
9749;SDS011;4914;43.218;27.908;2022-07-22T04:47:58;38.25;;;16.33;;
9749;SDS011;4914;43.218;27.908;2022-07-22T04:50:25;36.08;;;17.85;;
9749;SDS011;4914;43.218;27.908;2022-07-22T04:52:52;47.40;;;17.17;;
9749;SDS011;4914;43.218;27.908;2022-07-22T04:55:19;31.80;;;17.05;;
9749;SDS011;4914;43.218;27.908;2022-07-22T04:57:46;29.15;;;16.17;;
9749;SDS011;4914;43.218;27.908;2022-07-22T05:00:13;27.75;;;15.85;;
9749;SDS011;4914;43.218;27.908;2022-07-22T05:02:42;39.25;;;15.43;;
9749;SDS011;4914;43.218;27.908;2022-07-22T05:05:10;26.45;;;14.52;;
9749;SDS011;4914;43.218;27.908;2022-07-22T05:07:37;21.98;;;14.27;;
9749;SDS011;4914;43.218;27.908;2022-07-22T05:10:04;21.88;;;14.18;;
9749;SDS011;4914;43.218;27.908;2022-07-22T05:12:32;22.10;;;14.25;;
9749;SDS011;4914;43.218;27.908;2022-07-22T05:14:59;27.95;;;14.68;;
9749;SDS011;4914;43.218;27.908;2022-07-22T05:17:26;26.65;;;14.35;;
9749;SDS011;4914;43.218;27.908;2022-07-22T05:19:52;29.02;;;15.77;;
9749;SDS011;4914;43.218;27.908;2022-07-22T05:22:21;24.60;;;15.02;;
9749;SDS011;4914;43.218;27.908;2022-07-22T05:24:48;30.45;;;16.52;;
9749;SDS011;4914;43.218;27.908;2022-07-22T05:27:14;27.20;;;14.02;;
9749;SDS011;4914;43.218;27.908;2022-07-22T05:29:41;26.13;;;13.25;;
9749;SDS011;4914;43.218;27.908;2022-07-22T05:32:08;29.17;;;13.60;;
9749;SDS011;4914;43.218;27.908;2022-07-22T05:34:35;27.40;;;12.88;;
9749;SDS011;4914;43.218;27.908;2022-07-22T05:37:02;21.92;;;13.30;;
9749;SDS011;4914;43.218;27.908;2022-07-22T05:39:30;26.30;;;12.90;;
9749;SDS011;4914;43.218;27.908;2022-07-22T05:41:57;21.67;;;11.73;;
9749;SDS011;4914;43.218;27.908;2022-07-22T05:44:24;24.98;;;12.90;;
9749;SDS011;4914;43.218;27.908;2022-07-22T05:46:51;22.92;;;11.60;;
9749;SDS011;4914;43.218;27.908;2022-07-22T05:49:18;27.65;;;12.70;;
9749;SDS011;4914;43.218;27.908;2022-07-22T05:51:47;27.30;;;13.15;;
9749;SDS011;4914;43.218;27.908;2022-07-22T05:54:13;36.03;;;12.32;;
9749;SDS011;4914;43.218;27.908;2022-07-22T05:56:42;29.52;;;11.68;;
9749;SDS011;4914;43.218;27.908;2022-07-22T05:59:09;27.30;;;12.23;;
9749;SDS011;4914;43.218;27.908;2022-07-22T06:01:35;24.10;;;11.10;;
9749;SDS011;4914;43.218;27.908;2022-07-22T06:04:02;19.50;;;10.43;;
9749;SDS011;4914;43.218;27.908;2022-07-22T06:06:29;22.98;;;10.88;;
9749;SDS011;4914;43.218;27.908;2022-07-22T06:08:56;21.48;;;10.45;;
9749;SDS011;4914;43.218;27.908;2022-07-22T06:11:23;23.77;;;10.20;;
9749;SDS011;4914;43.218;27.908;2022-07-22T06:13:51;20.67;;;9.55;;
9749;SDS011;4914;43.218;27.908;2022-07-22T06:16:18;21.95;;;10.15;;
9749;SDS011;4914;43.218;27.908;2022-07-22T06:18:45;20.63;;;10.00;;
9749;SDS011;4914;43.218;27.908;2022-07-22T06:21:12;19.42;;;10.27;;
9749;SDS011;4914;43.218;27.908;2022-07-22T06:23:39;20.85;;;10.02;;
9749;SDS011;4914;43.218;27.908;2022-07-22T06:26:06;27.60;;;9.38;;
9749;SDS011;4914;43.218;27.908;2022-07-22T06:28:32;17.05;;;9.18;;
9749;SDS011;4914;43.218;27.908;2022-07-22T06:31:01;14.30;;;8.77;;
9749;SDS011;4914;43.218;27.908;2022-07-22T06:33:28;18.63;;;9.43;;
9749;SDS011;4914;43.218;27.908;2022-07-22T06:35:58;19.83;;;9.57;;
9749;SDS011;4914;43.218;27.908;2022-07-22T06:38:25;19.73;;;9.43;;
9749;SDS011;4914;43.218;27.908;2022-07-22T06:40:52;12.75;;;8.90;;
9749;SDS011;4914;43.218;27.908;2022-07-22T06:43:18;18.30;;;9.73;;
9749;SDS011;4914;43.218;27.908;2022-07-22T06:45:45;19.08;;;8.82;;
9749;SDS011;4914;43.218;27.908;2022-07-22T06:48:13;19.23;;;9.88;;
9749;SDS011;4914;43.218;27.908;2022-07-22T06:50:41;19.15;;;9.63;;
9749;SDS011;4914;43.218;27.908;2022-07-22T06:53:08;9.45;;;7.03;;
9749;SDS011;4914;43.218;27.908;2022-07-22T06:55:35;10.73;;;8.10;;
9749;SDS011;4914;43.218;27.908;2022-07-22T06:58:02;10.60;;;6.90;;
9749;SDS011;4914;43.218;27.908;2022-07-22T07:00:29;9.30;;;7.35;;
9749;SDS011;4914;43.218;27.908;2022-07-22T07:02:57;11.75;;;6.85;;
9749;SDS011;4914;43.218;27.908;2022-07-22T07:05:26;8.75;;;7.13;;
9749;SDS011;4914;43.218;27.908;2022-07-22T07:07:53;12.98;;;6.70;;
9749;SDS011;4914;43.218;27.908;2022-07-22T07:10:20;12.38;;;6.90;;
9749;SDS011;4914;43.218;27.908;2022-07-22T07:12:47;13.10;;;6.28;;
9749;SDS011;4914;43.218;27.908;2022-07-22T07:15:14;15.13;;;5.60;;
9749;SDS011;4914;43.218;27.908;2022-07-22T07:17:41;10.95;;;5.70;;
9749;SDS011;4914;43.218;27.908;2022-07-22T07:20:08;8.23;;;5.82;;
9749;SDS011;4914;43.218;27.908;2022-07-22T07:22:37;8.35;;;6.18;;
9749;SDS011;4914;43.218;27.908;2022-07-22T07:25:04;15.25;;;5.30;;
9749;SDS011;4914;43.218;27.908;2022-07-22T07:27:32;9.88;;;5.47;;
9749;SDS011;4914;43.218;27.908;2022-07-22T07:29:59;7.05;;;5.47;;
9749;SDS011;4914;43.218;27.908;2022-07-22T07:32:26;7.82;;;5.57;;
9749;SDS011;4914;43.218;27.908;2022-07-22T07:34:52;14.35;;;5.20;;
9749;SDS011;4914;43.218;27.908;2022-07-22T07:37:19;9.40;;;5.50;;
9749;SDS011;4914;43.218;27.908;2022-07-22T07:39:48;10.52;;;5.53;;
9749;SDS011;4914;43.218;27.908;2022-07-22T07:42:14;7.60;;;5.10;;
9749;SDS011;4914;43.218;27.908;2022-07-22T07:44:41;13.65;;;5.40;;
9749;SDS011;4914;43.218;27.908;2022-07-22T07:47:08;12.70;;;5.30;;
9749;SDS011;4914;43.218;27.908;2022-07-22T07:49:35;11.20;;;5.32;;
9749;SDS011;4914;43.218;27.908;2022-07-22T07:52:02;9.00;;;5.50;;
9749;SDS011;4914;43.218;27.908;2022-07-22T07:54:29;7.97;;;5.07;;
9749;SDS011;4914;43.218;27.908;2022-07-22T07:56:57;6.63;;;5.30;;
9749;SDS011;4914;43.218;27.908;2022-07-22T07:59:24;10.00;;;5.50;;
9749;SDS011;4914;43.218;27.908;2022-07-22T08:01:51;7.65;;;4.85;;
9749;SDS011;4914;43.218;27.908;2022-07-22T08:04:17;11.38;;;5.10;;
9749;SDS011;4914;43.218;27.908;2022-07-22T08:06:44;9.50;;;5.00;;
9749;SDS011;4914;43.218;27.908;2022-07-22T08:09:11;6.72;;;5.13;;
9749;SDS011;4914;43.218;27.908;2022-07-22T08:11:38;10.55;;;5.10;;
9749;SDS011;4914;43.218;27.908;2022-07-22T08:14:06;8.63;;;5.22;;
9749;SDS011;4914;43.218;27.908;2022-07-22T08:16:33;5.18;;;4.68;;
9749;SDS011;4914;43.218;27.908;2022-07-22T08:19:00;10.10;;;4.72;;
9749;SDS011;4914;43.218;27.908;2022-07-22T08:21:27;9.10;;;4.78;;
9749;SDS011;4914;43.218;27.908;2022-07-22T08:23:54;16.30;;;5.50;;
9749;SDS011;4914;43.218;27.908;2022-07-22T08:26:21;10.82;;;4.65;;
9749;SDS011;4914;43.218;27.908;2022-07-22T08:28:48;15.90;;;4.88;;
9749;SDS011;4914;43.218;27.908;2022-07-22T08:31:16;8.27;;;4.78;;
9749;SDS011;4914;43.218;27.908;2022-07-22T08:33:43;5.70;;;4.50;;
9749;SDS011;4914;43.218;27.908;2022-07-22T08:36:10;11.18;;;5.30;;
9749;SDS011;4914;43.218;27.908;2022-07-22T08:38:36;11.20;;;4.75;;
9749;SDS011;4914;43.218;27.908;2022-07-22T08:41:03;11.27;;;7.88;;
9749;SDS011;4914;43.218;27.908;2022-07-22T08:43:33;9.70;;;5.22;;
9749;SDS011;4914;43.218;27.908;2022-07-22T08:46:02;10.80;;;5.35;;
9749;SDS011;4914;43.218;27.908;2022-07-22T08:48:31;7.45;;;4.97;;
9749;SDS011;4914;43.218;27.908;2022-07-22T08:50:58;5.15;;;4.65;;
9749;SDS011;4914;43.218;27.908;2022-07-22T08:53:25;6.22;;;4.45;;
9749;SDS011;4914;43.218;27.908;2022-07-22T08:55:52;7.28;;;4.90;;
9749;SDS011;4914;43.218;27.908;2022-07-22T08:58:19;16.25;;;5.28;;
9749;SDS011;4914;43.218;27.908;2022-07-22T09:00:46;6.80;;;4.30;;
9749;SDS011;4914;43.218;27.908;2022-07-22T09:03:16;9.77;;;4.70;;
9749;SDS011;4914;43.218;27.908;2022-07-22T09:05:48;8.20;;;4.32;;
9749;SDS011;4914;43.218;27.908;2022-07-22T09:08:17;8.65;;;5.05;;
9749;SDS011;4914;43.218;27.908;2022-07-22T09:10:44;12.38;;;4.68;;
9749;SDS011;4914;43.218;27.908;2022-07-22T09:13:11;8.98;;;4.47;;
9749;SDS011;4914;43.218;27.908;2022-07-22T09:15:45;10.35;;;4.30;;
9749;SDS011;4914;43.218;27.908;2022-07-22T09:18:13;6.20;;;3.97;;
9749;SDS011;4914;43.218;27.908;2022-07-22T09:20:39;13.63;;;4.07;;
9749;SDS011;4914;43.218;27.908;2022-07-22T09:23:12;14.50;;;4.38;;
9749;SDS011;4914;43.218;27.908;2022-07-22T09:25:40;8.70;;;4.40;;
9749;SDS011;4914;43.218;27.908;2022-07-22T09:28:14;14.32;;;4.47;;
9749;SDS011;4914;43.218;27.908;2022-07-22T09:30:46;12.65;;;5.28;;
9749;SDS011;4914;43.218;27.908;2022-07-22T09:33:16;13.80;;;4.40;;
9749;SDS011;4914;43.218;27.908;2022-07-22T09:35:43;13.23;;;4.22;;
9749;SDS011;4914;43.218;27.908;2022-07-22T09:38:12;8.05;;;4.20;;
9749;SDS011;4914;43.218;27.908;2022-07-22T09:40:40;4.28;;;3.55;;
9749;SDS011;4914;43.218;27.908;2022-07-22T09:43:09;10.07;;;4.13;;
9749;SDS011;4914;43.218;27.908;2022-07-22T09:45:43;5.60;;;3.55;;
9749;SDS011;4914;43.218;27.908;2022-07-22T09:48:12;22.58;;;4.00;;
9749;SDS011;4914;43.218;27.908;2022-07-22T09:50:40;11.23;;;3.80;;
9749;SDS011;4914;43.218;27.908;2022-07-22T09:53:07;4.55;;;3.35;;
9749;SDS011;4914;43.218;27.908;2022-07-22T09:55:35;10.25;;;3.90;;
9749;SDS011;4914;43.218;27.908;2022-07-22T09:58:05;5.60;;;3.63;;
9749;SDS011;4914;43.218;27.908;2022-07-22T10:00:33;3.70;;;3.40;;
9749;SDS011;4914;43.218;27.908;2022-07-22T10:03:01;9.18;;;3.55;;
9749;SDS011;4914;43.218;27.908;2022-07-22T10:05:31;10.23;;;4.20;;
9749;SDS011;4914;43.218;27.908;2022-07-22T10:08:00;15.32;;;4.25;;
9749;SDS011;4914;43.218;27.908;2022-07-22T10:10:29;9.27;;;3.83;;
9749;SDS011;4914;43.218;27.908;2022-07-22T10:12:59;8.55;;;3.50;;
9749;SDS011;4914;43.218;27.908;2022-07-22T10:15:27;4.88;;;3.13;;
9749;SDS011;4914;43.218;27.908;2022-07-22T10:17:57;5.50;;;3.60;;
9749;SDS011;4914;43.218;27.908;2022-07-22T10:20:25;20.80;;;3.85;;
9749;SDS011;4914;43.218;27.908;2022-07-22T10:22:55;10.85;;;3.90;;
9749;SDS011;4914;43.218;27.908;2022-07-22T10:25:22;5.75;;;3.58;;
9749;SDS011;4914;43.218;27.908;2022-07-22T10:27:52;7.15;;;3.67;;
9749;SDS011;4914;43.218;27.908;2022-07-22T10:30:23;12.25;;;3.90;;
9749;SDS011;4914;43.218;27.908;2022-07-22T10:33:04;10.98;;;3.50;;
9749;SDS011;4914;43.218;27.908;2022-07-22T10:35:34;7.53;;;3.70;;
9749;SDS011;4914;43.218;27.908;2022-07-22T10:38:06;11.52;;;3.60;;
9749;SDS011;4914;43.218;27.908;2022-07-22T10:40:47;7.20;;;3.67;;
9749;SDS011;4914;43.218;27.908;2022-07-22T10:43:16;7.75;;;4.28;;
9749;SDS011;4914;43.218;27.908;2022-07-22T10:45:46;9.50;;;3.83;;
9749;SDS011;4914;43.218;27.908;2022-07-22T10:48:16;9.77;;;3.70;;
9749;SDS011;4914;43.218;27.908;2022-07-22T10:50:46;9.65;;;4.03;;
9749;SDS011;4914;43.218;27.908;2022-07-22T10:53:21;11.02;;;4.03;;
9749;SDS011;4914;43.218;27.908;2022-07-22T10:55:57;7.22;;;3.70;;
9749;SDS011;4914;43.218;27.908;2022-07-22T10:58:41;9.93;;;4.03;;
9749;SDS011;4914;43.218;27.908;2022-07-22T11:01:21;9.80;;;4.22;;
9749;SDS011;4914;43.218;27.908;2022-07-22T11:03:50;5.95;;;4.18;;
9749;SDS011;4914;43.218;27.908;2022-07-22T11:06:18;15.18;;;3.92;;
9749;SDS011;4914;43.218;27.908;2022-07-22T11:08:51;6.43;;;3.78;;
9749;SDS011;4914;43.218;27.908;2022-07-22T11:11:30;9.48;;;4.45;;
9749;SDS011;4914;43.218;27.908;2022-07-22T11:14:03;7.80;;;4.20;;
9749;SDS011;4914;43.218;27.908;2022-07-22T11:16:31;8.15;;;3.97;;
9749;SDS011;4914;43.218;27.908;2022-07-22T11:18:59;12.57;;;3.88;;
9749;SDS011;4914;43.218;27.908;2022-07-22T11:21:28;7.50;;;6.35;;
9749;SDS011;4914;43.218;27.908;2022-07-22T11:23:57;8.57;;;4.18;;
9749;SDS011;4914;43.218;27.908;2022-07-22T11:26:36;8.30;;;3.97;;
9749;SDS011;4914;43.218;27.908;2022-07-22T11:29:06;7.72;;;4.00;;
9749;SDS011;4914;43.218;27.908;2022-07-22T11:31:34;11.02;;;4.00;;
9749;SDS011;4914;43.218;27.908;2022-07-22T11:34:08;7.15;;;4.07;;
9749;SDS011;4914;43.218;27.908;2022-07-22T11:36:37;6.50;;;3.95;;
9749;SDS011;4914;43.218;27.908;2022-07-22T11:39:06;5.90;;;4.25;;
9749;SDS011;4914;43.218;27.908;2022-07-22T11:41:34;10.48;;;4.18;;
9749;SDS011;4914;43.218;27.908;2022-07-22T11:44:01;14.90;;;4.13;;
9749;SDS011;4914;43.218;27.908;2022-07-22T11:46:35;10.82;;;4.25;;
9749;SDS011;4914;43.218;27.908;2022-07-22T11:49:03;10.68;;;4.30;;
9749;SDS011;4914;43.218;27.908;2022-07-22T11:51:31;9.30;;;4.05;;
9749;SDS011;4914;43.218;27.908;2022-07-22T11:53:59;9.52;;;4.30;;
9749;SDS011;4914;43.218;27.908;2022-07-22T11:56:27;4.88;;;4.40;;
9749;SDS011;4914;43.218;27.908;2022-07-22T11:58:54;9.50;;;4.53;;
9749;SDS011;4914;43.218;27.908;2022-07-22T12:01:22;10.93;;;5.15;;
9749;SDS011;4914;43.218;27.908;2022-07-22T12:03:53;10.20;;;5.55;;
9749;SDS011;4914;43.218;27.908;2022-07-22T12:06:24;7.22;;;5.07;;
9749;SDS011;4914;43.218;27.908;2022-07-22T12:08:52;8.52;;;5.05;;
9749;SDS011;4914;43.218;27.908;2022-07-22T12:11:23;12.32;;;5.38;;
9749;SDS011;4914;43.218;27.908;2022-07-22T12:13:51;11.27;;;4.88;;
9749;SDS011;4914;43.218;27.908;2022-07-22T12:16:19;11.57;;;5.97;;
9749;SDS011;4914;43.218;27.908;2022-07-22T12:18:55;12.60;;;6.38;;
9749;SDS011;4914;43.218;27.908;2022-07-22T12:21:24;10.15;;;5.30;;
9749;SDS011;4914;43.218;27.908;2022-07-22T12:23:53;17.13;;;4.97;;
9749;SDS011;4914;43.218;27.908;2022-07-22T12:26:41;10.48;;;5.10;;
9749;SDS011;4914;43.218;27.908;2022-07-22T12:29:13;13.15;;;5.22;;
9749;SDS011;4914;43.218;27.908;2022-07-22T12:31:41;7.43;;;5.18;;
9749;SDS011;4914;43.218;27.908;2022-07-22T12:34:10;6.85;;;4.97;;
9749;SDS011;4914;43.218;27.908;2022-07-22T12:36:38;11.75;;;5.38;;
9749;SDS011;4914;43.218;27.908;2022-07-22T12:39:11;9.57;;;5.35;;
9749;SDS011;4914;43.218;27.908;2022-07-22T12:41:44;21.02;;;5.10;;
9749;SDS011;4914;43.218;27.908;2022-07-22T12:44:18;15.50;;;5.40;;
9749;SDS011;4914;43.218;27.908;2022-07-22T12:46:47;12.65;;;5.22;;
9749;SDS011;4914;43.218;27.908;2022-07-22T12:49:17;8.75;;;4.70;;
9749;SDS011;4914;43.218;27.908;2022-07-22T12:54:30;8.35;;;4.60;;
9749;SDS011;4914;43.218;27.908;2022-07-22T12:56:57;13.60;;;5.28;;
9749;SDS011;4914;43.218;27.908;2022-07-22T12:59:24;9.93;;;5.80;;
9749;SDS011;4914;43.218;27.908;2022-07-22T13:01:52;9.35;;;5.03;;
9749;SDS011;4914;43.218;27.908;2022-07-22T13:04:20;11.07;;;5.10;;
9749;SDS011;4914;43.218;27.908;2022-07-22T13:06:47;7.38;;;4.63;;
9749;SDS011;4914;43.218;27.908;2022-07-22T13:09:14;10.73;;;5.30;;
9749;SDS011;4914;43.218;27.908;2022-07-22T13:11:41;8.73;;;4.97;;
9749;SDS011;4914;43.218;27.908;2022-07-22T13:14:09;6.20;;;4.90;;
9749;SDS011;4914;43.218;27.908;2022-07-22T13:16:36;11.70;;;5.50;;
9749;SDS011;4914;43.218;27.908;2022-07-22T13:19:04;10.25;;;5.50;;
9749;SDS011;4914;43.218;27.908;2022-07-22T13:21:34;11.38;;;5.60;;
9749;SDS011;4914;43.218;27.908;2022-07-22T13:24:01;8.48;;;5.90;;
9749;SDS011;4914;43.218;27.908;2022-07-22T13:26:28;10.93;;;6.10;;
9749;SDS011;4914;43.218;27.908;2022-07-22T13:28:55;9.80;;;6.05;;
9749;SDS011;4914;43.218;27.908;2022-07-22T13:31:21;13.68;;;6.18;;
9749;SDS011;4914;43.218;27.908;2022-07-22T13:33:49;17.17;;;5.93;;
9749;SDS011;4914;43.218;27.908;2022-07-22T13:36:16;11.80;;;5.70;;
9749;SDS011;4914;43.218;27.908;2022-07-22T13:38:44;9.90;;;6.07;;
9749;SDS011;4914;43.218;27.908;2022-07-22T13:41:12;13.80;;;5.65;;
9749;SDS011;4914;43.218;27.908;2022-07-22T13:43:43;9.05;;;5.80;;
9749;SDS011;4914;43.218;27.908;2022-07-22T13:46:10;12.20;;;5.60;;
9749;SDS011;4914;43.218;27.908;2022-07-22T13:48:37;10.73;;;5.70;;
9749;SDS011;4914;43.218;27.908;2022-07-22T13:51:04;6.72;;;5.40;;
9749;SDS011;4914;43.218;27.908;2022-07-22T13:53:31;11.18;;;5.95;;
9749;SDS011;4914;43.218;27.908;2022-07-22T13:56:00;13.10;;;5.65;;
9749;SDS011;4914;43.218;27.908;2022-07-22T13:58:27;8.02;;;5.53;;
9749;SDS011;4914;43.218;27.908;2022-07-22T14:00:54;6.00;;;5.40;;
9749;SDS011;4914;43.218;27.908;2022-07-22T14:03:21;10.20;;;5.40;;
9749;SDS011;4914;43.218;27.908;2022-07-22T14:05:48;13.75;;;5.95;;
9749;SDS011;4914;43.218;27.908;2022-07-22T14:08:16;9.88;;;5.35;;
9749;SDS011;4914;43.218;27.908;2022-07-22T14:10:42;9.82;;;5.90;;
9749;SDS011;4914;43.218;27.908;2022-07-22T14:13:11;9.90;;;5.53;;
9749;SDS011;4914;43.218;27.908;2022-07-22T14:15:38;16.60;;;5.95;;
9749;SDS011;4914;43.218;27.908;2022-07-22T14:18:05;6.45;;;5.80;;
9749;SDS011;4914;43.218;27.908;2022-07-22T14:20:32;9.23;;;5.80;;
9749;SDS011;4914;43.218;27.908;2022-07-22T14:22:59;12.68;;;5.95;;
9749;SDS011;4914;43.218;27.908;2022-07-22T14:25:28;10.25;;;8.35;;
9749;SDS011;4914;43.218;27.908;2022-07-22T14:27:55;11.63;;;6.18;;
9749;SDS011;4914;43.218;27.908;2022-07-22T14:30:24;10.40;;;5.70;;
9749;SDS011;4914;43.218;27.908;2022-07-22T14:32:53;6.65;;;5.70;;
9749;SDS011;4914;43.218;27.908;2022-07-22T14:35:19;13.48;;;5.75;;
9749;SDS011;4914;43.218;27.908;2022-07-22T14:37:46;7.43;;;5.70;;
9749;SDS011;4914;43.218;27.908;2022-07-22T14:40:13;6.68;;;5.43;;
9749;SDS011;4914;43.218;27.908;2022-07-22T14:42:40;9.80;;;6.18;;
9749;SDS011;4914;43.218;27.908;2022-07-22T14:45:07;8.57;;;5.80;;
9749;SDS011;4914;43.218;27.908;2022-07-22T14:47:36;6.22;;;5.40;;
9749;SDS011;4914;43.218;27.908;2022-07-22T14:50:04;10.23;;;5.25;;
9749;SDS011;4914;43.218;27.908;2022-07-22T14:52:32;11.50;;;5.18;;
9749;SDS011;4914;43.218;27.908;2022-07-22T14:54:59;8.18;;;5.78;;